sensor_id;sensor_type;location;lat;lon;timestamp;P1;durP1;ratioP1;P2;durP2;ratioP2
850;SDS011;412;51.400;7.480;2023-01-25T00:01:52;20.50;;;15.33;;
850;SDS011;412;51.400;7.480;2023-01-25T00:04:18;18.37;;;15.97;;
850;SDS011;412;51.400;7.480;2023-01-25T00:06:44;21.48;;;16.00;;
850;SDS011;412;51.400;7.480;2023-01-25T00:09:11;20.35;;;14.40;;
850;SDS011;412;51.400;7.480;2023-01-25T00:11:37;19.13;;;14.82;;
850;SDS011;412;51.400;7.480;2023-01-25T00:14:03;19.93;;;16.10;;
850;SDS011;412;51.400;7.480;2023-01-25T00:16:29;20.38;;;15.50;;
850;SDS011;412;51.400;7.480;2023-01-25T00:18:55;20.00;;;16.00;;
850;SDS011;412;51.400;7.480;2023-01-25T00:21:22;17.43;;;15.17;;
850;SDS011;412;51.400;7.480;2023-01-25T00:23:49;19.88;;;16.02;;
850;SDS011;412;51.400;7.480;2023-01-25T00:26:15;19.97;;;16.77;;
850;SDS011;412;51.400;7.480;2023-01-25T00:28:40;18.47;;;14.70;;
850;SDS011;412;51.400;7.480;2023-01-25T00:31:06;19.57;;;15.40;;
850;SDS011;412;51.400;7.480;2023-01-25T00:33:39;18.13;;;15.93;;
850;SDS011;412;51.400;7.480;2023-01-25T00:39:03;22.23;;;16.10;;
850;SDS011;412;51.400;7.480;2023-01-25T00:41:29;19.20;;;15.52;;
850;SDS011;412;51.400;7.480;2023-01-25T00:43:55;16.37;;;14.23;;
850;SDS011;412;51.400;7.480;2023-01-25T00:46:22;20.10;;;15.15;;
850;SDS011;412;51.400;7.480;2023-01-25T00:48:48;19.25;;;15.55;;
850;SDS011;412;51.400;7.480;2023-01-25T00:51:16;19.55;;;15.15;;
850;SDS011;412;51.400;7.480;2023-01-25T00:53:42;17.63;;;14.80;;
850;SDS011;412;51.400;7.480;2023-01-25T00:56:08;17.77;;;14.13;;
850;SDS011;412;51.400;7.480;2023-01-25T00:58:33;18.30;;;15.37;;
850;SDS011;412;51.400;7.480;2023-01-25T01:00:59;21.63;;;15.10;;
850;SDS011;412;51.400;7.480;2023-01-25T01:03:25;21.43;;;15.50;;
850;SDS011;412;51.400;7.480;2023-01-25T01:06:00;20.37;;;14.20;;
850;SDS011;412;51.400;7.480;2023-01-25T01:08:28;19.10;;;15.05;;
850;SDS011;412;51.400;7.480;2023-01-25T01:11:00;19.48;;;15.63;;
850;SDS011;412;51.400;7.480;2023-01-25T01:13:27;19.17;;;15.10;;
850;SDS011;412;51.400;7.480;2023-01-25T01:15:53;19.52;;;14.48;;
850;SDS011;412;51.400;7.480;2023-01-25T01:18:19;21.35;;;15.63;;
850;SDS011;412;51.400;7.480;2023-01-25T01:20:49;21.45;;;14.77;;
850;SDS011;412;51.400;7.480;2023-01-25T01:23:18;20.98;;;14.60;;
850;SDS011;412;51.400;7.480;2023-01-25T01:25:44;19.23;;;14.60;;
850;SDS011;412;51.400;7.480;2023-01-25T01:28:11;20.25;;;15.15;;
850;SDS011;412;51.400;7.480;2023-01-25T01:30:37;19.80;;;14.43;;
850;SDS011;412;51.400;7.480;2023-01-25T01:33:03;20.33;;;14.10;;
850;SDS011;412;51.400;7.480;2023-01-25T01:35:29;19.43;;;15.33;;
850;SDS011;412;51.400;7.480;2023-01-25T01:37:55;21.60;;;14.10;;
850;SDS011;412;51.400;7.480;2023-01-25T01:40:20;19.27;;;14.23;;
850;SDS011;412;51.400;7.480;2023-01-25T01:42:59;19.33;;;15.80;;
850;SDS011;412;51.400;7.480;2023-01-25T01:45:44;22.08;;;15.30;;
850;SDS011;412;51.400;7.480;2023-01-25T01:48:16;23.85;;;16.45;;
850;SDS011;412;51.400;7.480;2023-01-25T01:50:54;22.60;;;17.70;;
850;SDS011;412;51.400;7.480;2023-01-25T01:53:23;21.10;;;15.40;;
850;SDS011;412;51.400;7.480;2023-01-25T01:55:54;21.83;;;15.60;;
850;SDS011;412;51.400;7.480;2023-01-25T01:58:22;20.73;;;15.25;;
850;SDS011;412;51.400;7.480;2023-01-25T02:00:48;21.55;;;16.05;;
850;SDS011;412;51.400;7.480;2023-01-25T02:03:14;23.20;;;16.27;;
850;SDS011;412;51.400;7.480;2023-01-25T02:08:29;22.95;;;16.35;;
850;SDS011;412;51.400;7.480;2023-01-25T02:10:58;19.88;;;14.13;;
850;SDS011;412;51.400;7.480;2023-01-25T02:13:25;20.02;;;14.25;;
850;SDS011;412;51.400;7.480;2023-01-25T02:15:52;23.70;;;16.48;;
850;SDS011;412;51.400;7.480;2023-01-25T02:18:20;22.25;;;15.07;;
850;SDS011;412;51.400;7.480;2023-01-25T02:20:50;19.95;;;15.07;;
850;SDS011;412;51.400;7.480;2023-01-25T02:25:43;22.67;;;15.60;;
850;SDS011;412;51.400;7.480;2023-01-25T02:28:14;20.33;;;14.40;;
850;SDS011;412;51.400;7.480;2023-01-25T02:31:10;21.05;;;14.63;;
850;SDS011;412;51.400;7.480;2023-01-25T02:33:35;20.90;;;14.00;;
850;SDS011;412;51.400;7.480;2023-01-25T02:38:38;17.30;;;12.77;;
850;SDS011;412;51.400;7.480;2023-01-25T02:41:14;22.27;;;15.10;;
850;SDS011;412;51.400;7.480;2023-01-25T02:43:45;18.67;;;13.63;;
850;SDS011;412;51.400;7.480;2023-01-25T02:46:24;20.07;;;15.07;;
850;SDS011;412;51.400;7.480;2023-01-25T02:48:53;16.92;;;12.85;;
850;SDS011;412;51.400;7.480;2023-01-25T02:51:26;21.23;;;14.20;;
850;SDS011;412;51.400;7.480;2023-01-25T02:53:54;17.50;;;12.48;;
850;SDS011;412;51.400;7.480;2023-01-25T02:56:20;14.90;;;12.27;;
850;SDS011;412;51.400;7.480;2023-01-25T02:58:46;17.88;;;13.40;;
850;SDS011;412;51.400;7.480;2023-01-25T03:01:12;18.98;;;12.65;;
850;SDS011;412;51.400;7.480;2023-01-25T03:03:39;18.13;;;13.23;;
850;SDS011;412;51.400;7.480;2023-01-25T03:06:05;16.17;;;12.85;;
850;SDS011;412;51.400;7.480;2023-01-25T03:08:31;16.73;;;12.25;;
850;SDS011;412;51.400;7.480;2023-01-25T03:10:58;18.85;;;13.10;;
850;SDS011;412;51.400;7.480;2023-01-25T03:13:25;18.00;;;12.27;;
850;SDS011;412;51.400;7.480;2023-01-25T03:15:52;17.88;;;12.25;;
850;SDS011;412;51.400;7.480;2023-01-25T03:18:24;19.92;;;11.68;;
850;SDS011;412;51.400;7.480;2023-01-25T03:20:49;18.60;;;12.73;;
850;SDS011;412;51.400;7.480;2023-01-25T03:23:15;16.00;;;11.87;;
850;SDS011;412;51.400;7.480;2023-01-25T03:25:41;15.40;;;12.50;;
850;SDS011;412;51.400;7.480;2023-01-25T03:28:07;17.20;;;12.43;;
850;SDS011;412;51.400;7.480;2023-01-25T03:30:33;18.53;;;12.53;;
850;SDS011;412;51.400;7.480;2023-01-25T03:32:59;19.30;;;13.82;;
850;SDS011;412;51.400;7.480;2023-01-25T03:35:25;17.47;;;12.50;;
850;SDS011;412;51.400;7.480;2023-01-25T03:37:50;19.27;;;14.00;;
850;SDS011;412;51.400;7.480;2023-01-25T03:40:16;16.70;;;12.30;;
850;SDS011;412;51.400;7.480;2023-01-25T03:42:42;16.87;;;12.70;;
850;SDS011;412;51.400;7.480;2023-01-25T03:45:08;18.90;;;13.10;;
850;SDS011;412;51.400;7.480;2023-01-25T03:47:34;16.30;;;12.50;;
850;SDS011;412;51.400;7.480;2023-01-25T03:49:59;16.17;;;11.47;;
850;SDS011;412;51.400;7.480;2023-01-25T03:52:25;16.80;;;11.50;;
850;SDS011;412;51.400;7.480;2023-01-25T03:54:52;16.25;;;12.40;;
850;SDS011;412;51.400;7.480;2023-01-25T03:57:17;16.67;;;12.53;;
850;SDS011;412;51.400;7.480;2023-01-25T03:59:43;16.43;;;12.37;;
850;SDS011;412;51.400;7.480;2023-01-25T04:02:09;16.40;;;12.00;;
850;SDS011;412;51.400;7.480;2023-01-25T04:04:36;15.95;;;10.95;;
850;SDS011;412;51.400;7.480;2023-01-25T04:07:02;14.87;;;9.87;;
850;SDS011;412;51.400;7.480;2023-01-25T04:09:28;16.13;;;11.20;;
850;SDS011;412;51.400;7.480;2023-01-25T04:11:53;16.50;;;11.43;;
850;SDS011;412;51.400;7.480;2023-01-25T04:14:19;13.17;;;9.90;;
850;SDS011;412;51.400;7.480;2023-01-25T04:16:45;15.53;;;10.70;;
850;SDS011;412;51.400;7.480;2023-01-25T04:19:10;13.57;;;9.40;;
850;SDS011;412;51.400;7.480;2023-01-25T04:21:36;14.53;;;9.47;;
850;SDS011;412;51.400;7.480;2023-01-25T04:24:02;12.57;;;8.97;;
850;SDS011;412;51.400;7.480;2023-01-25T04:26:28;13.80;;;10.67;;
850;SDS011;412;51.400;7.480;2023-01-25T04:28:53;13.00;;;9.07;;
850;SDS011;412;51.400;7.480;2023-01-25T04:31:19;13.33;;;9.37;;
850;SDS011;412;51.400;7.480;2023-01-25T04:33:47;14.95;;;9.35;;
850;SDS011;412;51.400;7.480;2023-01-25T04:36:13;13.67;;;10.07;;
850;SDS011;412;51.400;7.480;2023-01-25T04:38:39;11.77;;;8.63;;
850;SDS011;412;51.400;7.480;2023-01-25T04:41:06;14.85;;;11.93;;
850;SDS011;412;51.400;7.480;2023-01-25T04:43:31;14.13;;;10.23;;
850;SDS011;412;51.400;7.480;2023-01-25T04:45:59;12.40;;;9.47;;
850;SDS011;412;51.400;7.480;2023-01-25T04:48:26;14.93;;;9.90;;
850;SDS011;412;51.400;7.480;2023-01-25T04:50:52;14.20;;;10.57;;
850;SDS011;412;51.400;7.480;2023-01-25T04:53:18;13.67;;;8.30;;
850;SDS011;412;51.400;7.480;2023-01-25T04:55:44;12.27;;;8.70;;
850;SDS011;412;51.400;7.480;2023-01-25T04:58:11;10.85;;;9.75;;
850;SDS011;412;51.400;7.480;2023-01-25T05:00:37;11.27;;;6.90;;
850;SDS011;412;51.400;7.480;2023-01-25T05:03:03;10.97;;;7.77;;
850;SDS011;412;51.400;7.480;2023-01-25T05:05:28;13.60;;;11.50;;
850;SDS011;412;51.400;7.480;2023-01-25T05:07:54;15.03;;;10.37;;
850;SDS011;412;51.400;7.480;2023-01-25T05:10:20;14.00;;;10.27;;
850;SDS011;412;51.400;7.480;2023-01-25T05:12:46;14.80;;;9.93;;
850;SDS011;412;51.400;7.480;2023-01-25T05:15:12;13.17;;;9.40;;
850;SDS011;412;51.400;7.480;2023-01-25T05:17:38;15.37;;;10.50;;
850;SDS011;412;51.400;7.480;2023-01-25T05:20:04;14.83;;;9.73;;
850;SDS011;412;51.400;7.480;2023-01-25T05:22:30;15.85;;;10.05;;
850;SDS011;412;51.400;7.480;2023-01-25T05:24:56;13.53;;;9.30;;
850;SDS011;412;51.400;7.480;2023-01-25T05:27:23;14.43;;;10.60;;
850;SDS011;412;51.400;7.480;2023-01-25T05:29:49;13.77;;;9.93;;
850;SDS011;412;51.400;7.480;2023-01-25T05:32:16;15.47;;;9.60;;
850;SDS011;412;51.400;7.480;2023-01-25T05:34:43;13.88;;;12.30;;
850;SDS011;412;51.400;7.480;2023-01-25T05:37:11;13.70;;;11.13;;
850;SDS011;412;51.400;7.480;2023-01-25T05:39:39;15.13;;;8.95;;
850;SDS011;412;51.400;7.480;2023-01-25T05:42:12;16.13;;;12.30;;
850;SDS011;412;51.400;7.480;2023-01-25T05:44:39;18.10;;;9.55;;
850;SDS011;412;51.400;7.480;2023-01-25T05:47:05;16.37;;;9.63;;
850;SDS011;412;51.400;7.480;2023-01-25T05:49:31;16.75;;;8.82;;
850;SDS011;412;51.400;7.480;2023-01-25T05:51:57;15.30;;;10.50;;
850;SDS011;412;51.400;7.480;2023-01-25T05:54:23;19.50;;;10.27;;
850;SDS011;412;51.400;7.480;2023-01-25T05:56:48;13.60;;;9.00;;
850;SDS011;412;51.400;7.480;2023-01-25T05:59:14;12.50;;;8.90;;
850;SDS011;412;51.400;7.480;2023-01-25T06:01:41;16.13;;;11.02;;
850;SDS011;412;51.400;7.480;2023-01-25T06:04:08;17.08;;;13.80;;
850;SDS011;412;51.400;7.480;2023-01-25T06:06:41;17.73;;;9.98;;
850;SDS011;412;51.400;7.480;2023-01-25T06:09:06;15.93;;;11.07;;
850;SDS011;412;51.400;7.480;2023-01-25T06:11:34;14.80;;;12.90;;
850;SDS011;412;51.400;7.480;2023-01-25T06:13:59;14.07;;;10.47;;
850;SDS011;412;51.400;7.480;2023-01-25T06:16:26;14.95;;;10.30;;
850;SDS011;412;51.400;7.480;2023-01-25T06:18:51;13.50;;;10.37;;
850;SDS011;412;51.400;7.480;2023-01-25T06:21:17;17.07;;;12.53;;
850;SDS011;412;51.400;7.480;2023-01-25T06:23:43;15.00;;;10.57;;
850;SDS011;412;51.400;7.480;2023-01-25T06:26:12;16.70;;;12.50;;
850;SDS011;412;51.400;7.480;2023-01-25T06:28:39;18.38;;;11.70;;
850;SDS011;412;51.400;7.480;2023-01-25T06:31:05;14.30;;;11.05;;
850;SDS011;412;51.400;7.480;2023-01-25T06:33:33;20.50;;;12.65;;
850;SDS011;412;51.400;7.480;2023-01-25T06:36:20;15.70;;;11.15;;
850;SDS011;412;51.400;7.480;2023-01-25T06:38:49;14.43;;;10.07;;
850;SDS011;412;51.400;7.480;2023-01-25T06:41:16;15.35;;;11.68;;
850;SDS011;412;51.400;7.480;2023-01-25T06:43:42;16.02;;;12.43;;
850;SDS011;412;51.400;7.480;2023-01-25T06:46:08;14.97;;;10.13;;
850;SDS011;412;51.400;7.480;2023-01-25T06:48:38;18.55;;;11.68;;
850;SDS011;412;51.400;7.480;2023-01-25T06:51:06;14.20;;;9.75;;
850;SDS011;412;51.400;7.480;2023-01-25T06:53:36;17.52;;;11.43;;
850;SDS011;412;51.400;7.480;2023-01-25T06:56:07;14.15;;;10.85;;
850;SDS011;412;51.400;7.480;2023-01-25T06:58:35;17.08;;;11.73;;
850;SDS011;412;51.400;7.480;2023-01-25T07:01:05;18.07;;;11.83;;
850;SDS011;412;51.400;7.480;2023-01-25T07:03:39;14.80;;;11.55;;
850;SDS011;412;51.400;7.480;2023-01-25T07:06:06;15.70;;;11.55;;
850;SDS011;412;51.400;7.480;2023-01-25T07:08:33;13.90;;;11.93;;
850;SDS011;412;51.400;7.480;2023-01-25T07:11:01;13.80;;;11.75;;
850;SDS011;412;51.400;7.480;2023-01-25T07:13:29;17.27;;;13.30;;
850;SDS011;412;51.400;7.480;2023-01-25T07:15:56;16.40;;;12.95;;
850;SDS011;412;51.400;7.480;2023-01-25T07:18:24;17.00;;;10.67;;
850;SDS011;412;51.400;7.480;2023-01-25T07:20:51;13.27;;;9.83;;
850;SDS011;412;51.400;7.480;2023-01-25T07:23:18;17.20;;;12.83;;
850;SDS011;412;51.400;7.480;2023-01-25T07:25:44;17.13;;;12.47;;
850;SDS011;412;51.400;7.480;2023-01-25T07:28:11;16.53;;;12.27;;
850;SDS011;412;51.400;7.480;2023-01-25T07:30:38;18.57;;;12.97;;
850;SDS011;412;51.400;7.480;2023-01-25T07:33:04;16.07;;;13.13;;
850;SDS011;412;51.400;7.480;2023-01-25T07:35:30;16.67;;;11.60;;
850;SDS011;412;51.400;7.480;2023-01-25T07:37:56;15.07;;;10.67;;
850;SDS011;412;51.400;7.480;2023-01-25T07:40:22;15.30;;;11.57;;
850;SDS011;412;51.400;7.480;2023-01-25T07:42:51;17.57;;;12.20;;
850;SDS011;412;51.400;7.480;2023-01-25T07:45:17;20.90;;;12.90;;
850;SDS011;412;51.400;7.480;2023-01-25T07:47:43;20.27;;;12.43;;
850;SDS011;412;51.400;7.480;2023-01-25T07:50:09;17.20;;;12.03;;
850;SDS011;412;51.400;7.480;2023-01-25T07:52:35;20.25;;;11.90;;
850;SDS011;412;51.400;7.480;2023-01-25T07:55:01;19.93;;;13.17;;
850;SDS011;412;51.400;7.480;2023-01-25T07:57:27;20.97;;;13.07;;
850;SDS011;412;51.400;7.480;2023-01-25T07:59:53;18.17;;;13.32;;
850;SDS011;412;51.400;7.480;2023-01-25T08:02:18;17.50;;;12.30;;
850;SDS011;412;51.400;7.480;2023-01-25T08:04:44;19.63;;;13.20;;
850;SDS011;412;51.400;7.480;2023-01-25T08:07:10;16.77;;;12.77;;
850;SDS011;412;51.400;7.480;2023-01-25T08:09:37;21.08;;;13.88;;
850;SDS011;412;51.400;7.480;2023-01-25T08:12:10;20.13;;;14.18;;
850;SDS011;412;51.400;7.480;2023-01-25T08:14:35;20.98;;;13.50;;
850;SDS011;412;51.400;7.480;2023-01-25T08:17:02;21.38;;;13.68;;
850;SDS011;412;51.400;7.480;2023-01-25T08:19:28;19.63;;;12.33;;
850;SDS011;412;51.400;7.480;2023-01-25T08:21:53;19.20;;;12.73;;
850;SDS011;412;51.400;7.480;2023-01-25T08:24:19;18.00;;;12.60;;
850;SDS011;412;51.400;7.480;2023-01-25T08:26:45;18.03;;;11.43;;
850;SDS011;412;51.400;7.480;2023-01-25T08:29:11;18.23;;;13.07;;
850;SDS011;412;51.400;7.480;2023-01-25T08:31:38;17.42;;;11.18;;
850;SDS011;412;51.400;7.480;2023-01-25T08:34:05;17.55;;;12.95;;
850;SDS011;412;51.400;7.480;2023-01-25T08:36:31;15.32;;;11.35;;
850;SDS011;412;51.400;7.480;2023-01-25T08:39:02;16.38;;;13.45;;
850;SDS011;412;51.400;7.480;2023-01-25T08:41:30;14.75;;;11.52;;
850;SDS011;412;51.400;7.480;2023-01-25T08:43:57;19.13;;;12.15;;
850;SDS011;412;51.400;7.480;2023-01-25T08:46:24;17.50;;;12.45;;
850;SDS011;412;51.400;7.480;2023-01-25T08:48:52;14.70;;;11.50;;
850;SDS011;412;51.400;7.480;2023-01-25T08:51:19;18.88;;;12.38;;
850;SDS011;412;51.400;7.480;2023-01-25T08:53:45;19.77;;;12.63;;
850;SDS011;412;51.400;7.480;2023-01-25T08:56:12;18.47;;;12.77;;
850;SDS011;412;51.400;7.480;2023-01-25T08:58:44;15.38;;;11.52;;
850;SDS011;412;51.400;7.480;2023-01-25T09:01:12;17.77;;;12.00;;
850;SDS011;412;51.400;7.480;2023-01-25T09:03:42;18.40;;;12.98;;
850;SDS011;412;51.400;7.480;2023-01-25T09:06:09;17.30;;;11.93;;
850;SDS011;412;51.400;7.480;2023-01-25T09:08:35;17.70;;;11.80;;
850;SDS011;412;51.400;7.480;2023-01-25T09:11:06;19.83;;;12.52;;
850;SDS011;412;51.400;7.480;2023-01-25T09:13:33;18.25;;;12.35;;
850;SDS011;412;51.400;7.480;2023-01-25T09:16:06;19.50;;;12.75;;
850;SDS011;412;51.400;7.480;2023-01-25T09:18:37;16.10;;;10.98;;
850;SDS011;412;51.400;7.480;2023-01-25T09:21:09;19.20;;;12.27;;
850;SDS011;412;51.400;7.480;2023-01-25T09:23:37;21.02;;;14.02;;
850;SDS011;412;51.400;7.480;2023-01-25T09:26:03;22.42;;;15.18;;
850;SDS011;412;51.400;7.480;2023-01-25T09:28:29;21.42;;;14.77;;
850;SDS011;412;51.400;7.480;2023-01-25T09:30:57;20.27;;;13.77;;
850;SDS011;412;51.400;7.480;2023-01-25T09:33:29;20.05;;;14.05;;
850;SDS011;412;51.400;7.480;2023-01-25T09:36:00;19.25;;;13.43;;
850;SDS011;412;51.400;7.480;2023-01-25T09:38:26;18.17;;;12.50;;
850;SDS011;412;51.400;7.480;2023-01-25T09:40:59;25.17;;;15.85;;
850;SDS011;412;51.400;7.480;2023-01-25T09:46:20;17.95;;;13.40;;
850;SDS011;412;51.400;7.480;2023-01-25T09:52:19;18.70;;;12.10;;
850;SDS011;412;51.400;7.480;2023-01-25T09:54:58;20.63;;;12.60;;
850;SDS011;412;51.400;7.480;2023-01-25T09:57:34;20.43;;;11.60;;
850;SDS011;412;51.400;7.480;2023-01-25T10:00:03;18.98;;;13.82;;
850;SDS011;412;51.400;7.480;2023-01-25T10:02:43;21.27;;;13.40;;
850;SDS011;412;51.400;7.480;2023-01-25T10:05:20;21.35;;;14.15;;
850;SDS011;412;51.400;7.480;2023-01-25T10:07:55;18.38;;;12.38;;
850;SDS011;412;51.400;7.480;2023-01-25T10:10:40;21.52;;;12.88;;
850;SDS011;412;51.400;7.480;2023-01-25T10:13:12;21.10;;;13.68;;
850;SDS011;412;51.400;7.480;2023-01-25T10:15:49;21.73;;;14.18;;
850;SDS011;412;51.400;7.480;2023-01-25T10:20:52;24.55;;;15.02;;
850;SDS011;412;51.400;7.480;2023-01-25T10:26:19;20.35;;;12.85;;
850;SDS011;412;51.400;7.480;2023-01-25T10:31:45;20.00;;;12.27;;
850;SDS011;412;51.400;7.480;2023-01-25T10:34:30;15.45;;;10.93;;
850;SDS011;412;51.400;7.480;2023-01-25T10:37:01;19.30;;;13.18;;
850;SDS011;412;51.400;7.480;2023-01-25T10:39:36;19.30;;;11.80;;
850;SDS011;412;51.400;7.480;2023-01-25T10:42:07;18.45;;;12.45;;
850;SDS011;412;51.400;7.480;2023-01-25T10:44:38;15.45;;;11.38;;
850;SDS011;412;51.400;7.480;2023-01-25T10:49:42;18.83;;;10.75;;
850;SDS011;412;51.400;7.480;2023-01-25T10:52:22;17.50;;;10.90;;
850;SDS011;412;51.400;7.480;2023-01-25T10:55:07;18.65;;;11.65;;
850;SDS011;412;51.400;7.480;2023-01-25T10:57:43;16.60;;;10.02;;
850;SDS011;412;51.400;7.480;2023-01-25T11:00:19;16.67;;;10.90;;
850;SDS011;412;51.400;7.480;2023-01-25T11:02:52;15.00;;;9.35;;
850;SDS011;412;51.400;7.480;2023-01-25T11:07:47;15.20;;;10.40;;
850;SDS011;412;51.400;7.480;2023-01-25T11:10:46;14.43;;;10.13;;
850;SDS011;412;51.400;7.480;2023-01-25T11:15:41;14.95;;;10.18;;
850;SDS011;412;51.400;7.480;2023-01-25T11:18:13;18.27;;;10.98;;
850;SDS011;412;51.400;7.480;2023-01-25T11:23:43;13.90;;;10.02;;
850;SDS011;412;51.400;7.480;2023-01-25T11:26:44;17.17;;;9.90;;
850;SDS011;412;51.400;7.480;2023-01-25T11:31:42;15.18;;;9.75;;
850;SDS011;412;51.400;7.480;2023-01-25T11:34:19;15.68;;;9.60;;
850;SDS011;412;51.400;7.480;2023-01-25T11:51:18;14.30;;;9.85;;
850;SDS011;412;51.400;7.480;2023-01-25T11:56:37;18.25;;;11.82;;
850;SDS011;412;51.400;7.480;2023-01-25T11:59:23;17.33;;;10.52;;
850;SDS011;412;51.400;7.480;2023-01-25T12:15:16;21.08;;;12.77;;
850;SDS011;412;51.400;7.480;2023-01-25T12:17:47;19.35;;;11.77;;
850;SDS011;412;51.400;7.480;2023-01-25T12:20:28;21.42;;;11.65;;
850;SDS011;412;51.400;7.480;2023-01-25T12:28:43;20.15;;;11.90;;
850;SDS011;412;51.400;7.480;2023-01-25T12:34:20;18.42;;;11.85;;
850;SDS011;412;51.400;7.480;2023-01-25T12:36:50;16.17;;;11.85;;
850;SDS011;412;51.400;7.480;2023-01-25T12:39:18;18.40;;;11.97;;
850;SDS011;412;51.400;7.480;2023-01-25T12:41:56;18.95;;;11.55;;
850;SDS011;412;51.400;7.480;2023-01-25T12:44:30;16.73;;;11.23;;
850;SDS011;412;51.400;7.480;2023-01-25T12:52:29;16.77;;;10.23;;
850;SDS011;412;51.400;7.480;2023-01-25T12:55:02;17.23;;;11.50;;
850;SDS011;412;51.400;7.480;2023-01-25T12:57:34;13.43;;;9.55;;
850;SDS011;412;51.400;7.480;2023-01-25T13:08:26;17.20;;;10.55;;
850;SDS011;412;51.400;7.480;2023-01-25T13:11:11;18.50;;;11.75;;
850;SDS011;412;51.400;7.480;2023-01-25T13:13:41;17.30;;;10.35;;
850;SDS011;412;51.400;7.480;2023-01-25T13:18:54;18.85;;;13.13;;
850;SDS011;412;51.400;7.480;2023-01-25T13:27:49;17.35;;;10.07;;
850;SDS011;412;51.400;7.480;2023-01-25T13:38:01;19.38;;;13.57;;
850;SDS011;412;51.400;7.480;2023-01-25T13:40:38;22.88;;;13.15;;
850;SDS011;412;51.400;7.480;2023-01-25T13:43:15;22.48;;;14.43;;
850;SDS011;412;51.400;7.480;2023-01-25T13:45:43;19.33;;;13.23;;
850;SDS011;412;51.400;7.480;2023-01-25T13:48:11;21.88;;;15.25;;
850;SDS011;412;51.400;7.480;2023-01-25T13:50:46;21.58;;;14.55;;
850;SDS011;412;51.400;7.480;2023-01-25T13:58:21;17.63;;;11.40;;
850;SDS011;412;51.400;7.480;2023-01-25T14:04:03;17.23;;;10.95;;
850;SDS011;412;51.400;7.480;2023-01-25T14:06:38;19.30;;;11.13;;
850;SDS011;412;51.400;7.480;2023-01-25T14:09:10;16.70;;;10.65;;
850;SDS011;412;51.400;7.480;2023-01-25T14:11:43;17.20;;;11.55;;
850;SDS011;412;51.400;7.480;2023-01-25T14:14:25;17.10;;;11.90;;
850;SDS011;412;51.400;7.480;2023-01-25T14:16:59;13.35;;;9.70;;
850;SDS011;412;51.400;7.480;2023-01-25T14:19:40;18.48;;;11.18;;
850;SDS011;412;51.400;7.480;2023-01-25T14:22:19;15.18;;;10.07;;
850;SDS011;412;51.400;7.480;2023-01-25T14:25:06;15.65;;;10.18;;
850;SDS011;412;51.400;7.480;2023-01-25T14:27:49;13.73;;;9.07;;
850;SDS011;412;51.400;7.480;2023-01-25T14:30:18;16.60;;;11.23;;
850;SDS011;412;51.400;7.480;2023-01-25T14:32:47;15.57;;;10.57;;
850;SDS011;412;51.400;7.480;2023-01-25T14:38:00;17.70;;;10.00;;
850;SDS011;412;51.400;7.480;2023-01-25T14:40:29;15.05;;;9.57;;
850;SDS011;412;51.400;7.480;2023-01-25T14:42:56;15.73;;;9.32;;
850;SDS011;412;51.400;7.480;2023-01-25T14:45:22;16.50;;;10.30;;
850;SDS011;412;51.400;7.480;2023-01-25T14:47:51;15.85;;;10.00;;
850;SDS011;412;51.400;7.480;2023-01-25T14:50:37;17.73;;;9.90;;
850;SDS011;412;51.400;7.480;2023-01-25T14:53:20;17.88;;;10.13;;
850;SDS011;412;51.400;7.480;2023-01-25T14:55:47;18.63;;;11.55;;
850;SDS011;412;51.400;7.480;2023-01-25T14:58:21;16.27;;;11.40;;
850;SDS011;412;51.400;7.480;2023-01-25T15:00:52;16.17;;;10.35;;
850;SDS011;412;51.400;7.480;2023-01-25T15:03:18;18.35;;;12.45;;
850;SDS011;412;51.400;7.480;2023-01-25T15:05:46;20.30;;;12.52;;
850;SDS011;412;51.400;7.480;2023-01-25T15:08:13;18.50;;;11.70;;
850;SDS011;412;51.400;7.480;2023-01-25T15:10:50;19.85;;;11.77;;
850;SDS011;412;51.400;7.480;2023-01-25T15:13:18;17.38;;;10.50;;
850;SDS011;412;51.400;7.480;2023-01-25T15:15:49;16.10;;;10.35;;
850;SDS011;412;51.400;7.480;2023-01-25T15:21:27;18.90;;;10.88;;
850;SDS011;412;51.400;7.480;2023-01-25T15:23:55;23.35;;;12.98;;
850;SDS011;412;51.400;7.480;2023-01-25T15:26:26;20.98;;;12.10;;
850;SDS011;412;51.400;7.480;2023-01-25T15:28:57;23.42;;;12.38;;
850;SDS011;412;51.400;7.480;2023-01-25T15:31:29;20.10;;;12.70;;
850;SDS011;412;51.400;7.480;2023-01-25T15:33:57;24.67;;;13.88;;
850;SDS011;412;51.400;7.480;2023-01-25T15:36:25;19.55;;;12.52;;
850;SDS011;412;51.400;7.480;2023-01-25T15:38:52;19.98;;;11.70;;
850;SDS011;412;51.400;7.480;2023-01-25T15:41:18;21.60;;;13.15;;
850;SDS011;412;51.400;7.480;2023-01-25T15:43:45;21.95;;;12.40;;
850;SDS011;412;51.400;7.480;2023-01-25T15:46:21;24.73;;;13.20;;
850;SDS011;412;51.400;7.480;2023-01-25T15:48:50;21.05;;;13.13;;
850;SDS011;412;51.400;7.480;2023-01-25T15:51:16;23.08;;;12.98;;
850;SDS011;412;51.400;7.480;2023-01-25T15:53:43;22.80;;;12.45;;
850;SDS011;412;51.400;7.480;2023-01-25T15:56:12;22.40;;;11.68;;
850;SDS011;412;51.400;7.480;2023-01-25T15:58:40;20.48;;;12.15;;
850;SDS011;412;51.400;7.480;2023-01-25T16:01:08;22.08;;;11.65;;
850;SDS011;412;51.400;7.480;2023-01-25T16:03:34;19.63;;;11.38;;
850;SDS011;412;51.400;7.480;2023-01-25T16:06:04;21.00;;;10.90;;
850;SDS011;412;51.400;7.480;2023-01-25T16:08:44;25.20;;;15.68;;
850;SDS011;412;51.400;7.480;2023-01-25T16:11:10;22.37;;;15.10;;
850;SDS011;412;51.400;7.480;2023-01-25T16:13:35;21.90;;;13.10;;
850;SDS011;412;51.400;7.480;2023-01-25T16:16:01;26.00;;;14.90;;
850;SDS011;412;51.400;7.480;2023-01-25T16:18:27;24.23;;;14.00;;
850;SDS011;412;51.400;7.480;2023-01-25T16:20:53;22.37;;;14.90;;
850;SDS011;412;51.400;7.480;2023-01-25T16:23:18;20.83;;;13.23;;
850;SDS011;412;51.400;7.480;2023-01-25T16:25:46;20.80;;;13.80;;
850;SDS011;412;51.400;7.480;2023-01-25T16:28:13;20.95;;;14.45;;
850;SDS011;412;51.400;7.480;2023-01-25T16:30:39;23.70;;;14.23;;
850;SDS011;412;51.400;7.480;2023-01-25T16:33:06;25.13;;;15.65;;
850;SDS011;412;51.400;7.480;2023-01-25T16:35:31;26.90;;;15.13;;
850;SDS011;412;51.400;7.480;2023-01-25T16:37:57;24.40;;;14.40;;
850;SDS011;412;51.400;7.480;2023-01-25T16:40:24;30.50;;;17.03;;
850;SDS011;412;51.400;7.480;2023-01-25T16:42:54;23.38;;;14.57;;
850;SDS011;412;51.400;7.480;2023-01-25T16:45:20;30.42;;;17.48;;
850;SDS011;412;51.400;7.480;2023-01-25T16:47:48;26.65;;;15.50;;
850;SDS011;412;51.400;7.480;2023-01-25T16:50:15;32.53;;;18.30;;
850;SDS011;412;51.400;7.480;2023-01-25T16:52:42;32.08;;;17.25;;
850;SDS011;412;51.400;7.480;2023-01-25T16:55:11;27.38;;;16.33;;
850;SDS011;412;51.400;7.480;2023-01-25T16:57:38;36.40;;;19.20;;
850;SDS011;412;51.400;7.480;2023-01-25T17:00:08;35.08;;;19.30;;
850;SDS011;412;51.400;7.480;2023-01-25T17:02:37;27.90;;;17.17;;
850;SDS011;412;51.400;7.480;2023-01-25T17:05:03;32.72;;;17.65;;
850;SDS011;412;51.400;7.480;2023-01-25T17:07:29;34.42;;;19.17;;
850;SDS011;412;51.400;7.480;2023-01-25T17:09:56;33.23;;;18.20;;
850;SDS011;412;51.400;7.480;2023-01-25T17:12:22;31.48;;;18.90;;
850;SDS011;412;51.400;7.480;2023-01-25T17:14:50;31.23;;;18.58;;
850;SDS011;412;51.400;7.480;2023-01-25T17:17:16;32.03;;;17.80;;
850;SDS011;412;51.400;7.480;2023-01-25T17:19:43;32.42;;;18.10;;
850;SDS011;412;51.400;7.480;2023-01-25T17:22:09;35.73;;;19.77;;
850;SDS011;412;51.400;7.480;2023-01-25T17:24:35;37.07;;;20.23;;
850;SDS011;412;51.400;7.480;2023-01-25T17:27:01;39.40;;;21.30;;
850;SDS011;412;51.400;7.480;2023-01-25T17:29:29;40.17;;;20.63;;
850;SDS011;412;51.400;7.480;2023-01-25T17:31:55;33.95;;;19.85;;